Time;durP1;ratioP1;P1;durP2;ratioP2;P2;SDS_P1;SDS_P2;PMS_P1;PMS_P2;Temp;Humidity;BMP_temperature;BMP_pressure;BME280_temperature;BME280_humidity;BME280_pressure;Samples;Min_cycle;Max_cycle;Signal;HPM_P1;HPM_P2
2023/09/17 00:00:35;;;;;;;11.02;8.38;;;21.00;99.90;;;;;;4990328;28;20466;-49
2023/09/17 00:03:02;;;;;;;9.90;7.90;;;21.00;99.90;;;;;;4991790;28;20105;-49
2023/09/17 00:05:29;;;;;;;10.20;7.97;;;21.00;99.90;;;;;;4991584;28;20061;-50
2023/09/17 00:07:54;;;;;;;10.13;8.00;;;21.00;99.90;;;;;;4992148;28;20022;-49
2023/09/17 00:10:21;;;;;;;11.23;7.43;;;20.90;99.90;;;;;;4991715;28;20475;-50
2023/09/17 00:12:46;;;;;;;17.10;8.60;;;20.80;99.90;;;;;;4991950;28;20490;-51
2023/09/17 00:15:12;;;;;;;12.38;7.75;;;20.80;99.90;;;;;;4991360;28;20023;-50
2023/09/17 00:17:37;;;;;;;9.63;8.20;;;20.70;99.90;;;;;;4991875;28;20026;-52
2023/09/17 00:20:06;;;;;;;9.35;8.35;;;20.70;99.90;;;;;;4991695;28;20087;-49
2023/09/17 00:22:31;;;;;;;12.55;8.10;;;20.70;99.90;;;;;;4991592;28;20038;-52
2023/09/17 00:24:57;;;;;;;9.00;8.18;;;20.70;99.90;;;;;;4991472;28;20022;-49
2023/09/17 00:27:22;;;;;;;11.77;8.90;;;20.70;99.90;;;;;;4993689;28;20038;-49
2023/09/17 00:29:48;;;;;;;9.88;8.88;;;20.60;99.90;;;;;;4995227;28;20037;-53
2023/09/17 00:32:13;;;;;;;9.52;8.32;;;20.60;99.90;;;;;;4993958;28;20113;-50
2023/09/17 00:34:39;;;;;;;12.88;8.38;;;20.60;99.90;;;;;;4995004;28;20379;-47
2023/09/17 00:37:04;;;;;;;11.50;8.18;;;20.60;99.90;;;;;;4995125;28;20038;-49
2023/09/17 00:39:30;;;;;;;10.02;8.40;;;20.60;99.90;;;;;;4993828;28;20050;-46
2023/09/17 00:41:55;;;;;;;9.05;8.15;;;20.60;99.90;;;;;;4995003;28;20030;-51
2023/09/17 00:44:21;;;;;;;12.48;8.80;;;20.60;99.90;;;;;;4994875;28;20019;-50
2023/09/17 00:46:47;;;;;;;9.43;7.93;;;20.50;99.90;;;;;;4994782;28;20379;-51
2023/09/17 00:49:14;;;;;;;9.88;8.63;;;20.50;99.90;;;;;;4994805;28;20390;-48
2023/09/17 00:51:43;;;;;;;12.13;8.85;;;20.50;99.90;;;;;;4994831;28;20030;-50
2023/09/17 00:54:12;;;;;;;10.48;8.68;;;20.50;99.90;;;;;;4994648;28;20022;-49
2023/09/17 00:56:38;;;;;;;9.35;8.30;;;20.40;99.90;;;;;;4994620;28;20065;-49
2023/09/17 00:59:07;;;;;;;10.05;8.50;;;20.40;99.90;;;;;;4994478;28;20120;-48
2023/09/17 01:01:33;;;;;;;9.27;8.32;;;20.30;99.90;;;;;;4995198;28;20410;-49
2023/09/17 01:04:00;;;;;;;10.38;9.30;;;20.30;99.90;;;;;;4994461;28;20372;-50
2023/09/17 01:06:28;;;;;;;8.73;7.93;;;20.40;99.90;;;;;;4994371;28;20482;-49
2023/09/17 01:08:54;;;;;;;8.20;7.40;;;20.30;99.90;;;;;;4994217;28;20072;-53
2023/09/17 01:11:20;;;;;;;12.85;8.38;;;20.40;99.90;;;;;;4994694;28;20033;-53
2023/09/17 01:13:49;;;;;;;12.90;9.32;;;20.40;99.90;;;;;;4994249;28;20581;-51
2023/09/17 01:16:16;;;;;;;9.10;8.13;;;20.30;99.90;;;;;;4994130;28;20034;-49
2023/09/17 01:18:42;;;;;;;10.93;8.70;;;20.40;99.90;;;;;;4994383;28;20488;-52
2023/09/17 01:21:20;;;;;;;11.63;8.65;;;20.40;99.90;;;;;;4993995;28;20077;-52
2023/09/17 01:24:25;;;;;;;10.18;7.97;;;20.30;99.90;;;;;;4993873;28;20478;-48
2023/09/17 01:27:01;;;;;;;13.40;9.07;;;20.30;99.90;;;;;;4952717;29;20034;-52
2023/09/17 01:29:37;;;;;;;9.90;8.48;;;20.30;99.90;;;;;;4989934;28;20081;-53
2023/09/17 01:32:04;;;;;;;12.20;8.75;;;20.20;99.90;;;;;;4993898;28;20548;-52
2023/09/17 01:34:31;;;;;;;8.95;8.02;;;20.20;99.90;;;;;;4993859;28;20538;-50
2023/09/17 01:37:00;;;;;;;10.55;8.25;;;20.20;99.90;;;;;;4992298;28;20023;-50
2023/09/17 01:39:29;;;;;;;12.55;9.07;;;20.20;99.90;;;;;;4993625;28;20022;-48
2023/09/17 01:41:55;;;;;;;22.48;8.48;;;20.10;99.90;;;;;;4993237;28;20482;-48
2023/09/17 01:44:24;;;;;;;9.18;8.00;;;20.10;99.90;;;;;;4993662;28;20026;-49
2023/09/17 01:46:50;;;;;;;8.13;7.35;;;20.10;99.90;;;;;;4993602;28;20053;-52
2023/09/17 01:49:17;;;;;;;8.88;7.97;;;20.10;99.90;;;;;;4992361;28;20045;-47
2023/09/17 01:51:44;;;;;;;9.65;8.05;;;20.10;99.90;;;;;;4993714;28;20061;-47
2023/09/17 01:54:10;;;;;;;8.75;7.95;;;20.10;99.90;;;;;;4993434;28;20516;-50
2023/09/17 01:56:37;;;;;;;10.50;7.43;;;20.00;99.90;;;;;;4993518;28;20401;-51
2023/09/17 01:59:04;;;;;;;10.00;7.85;;;20.10;99.90;;;;;;4993464;28;20023;-48
2023/09/17 02:01:30;;;;;;;10.95;7.85;;;20.10;99.90;;;;;;4993715;28;20105;-48
2023/09/17 02:03:57;;;;;;;8.65;7.68;;;20.10;99.90;;;;;;4993454;28;20068;-48
2023/09/17 02:06:23;;;;;;;8.13;7.38;;;20.10;99.90;;;;;;4993250;28;20101;-48
2023/09/17 02:08:48;;;;;;;10.38;8.10;;;20.10;99.90;;;;;;4993220;28;20109;-48
2023/09/17 02:11:14;;;;;;;12.18;8.00;;;20.10;99.90;;;;;;4993315;28;20062;-50
2023/09/17 02:13:39;;;;;;;11.48;8.88;;;20.10;99.90;;;;;;4993246;28;20034;-51
2023/09/17 02:16:05;;;;;;;8.68;7.70;;;20.00;99.90;;;;;;4992996;28;20398;-48
2023/09/17 02:18:31;;;;;;;8.93;8.05;;;20.00;99.90;;;;;;4993232;28;20022;-49
2023/09/17 02:20:56;;;;;;;8.63;7.78;;;19.90;99.90;;;;;;4993034;28;20073;-47
2023/09/17 02:23:22;;;;;;;9.35;7.82;;;19.90;99.90;;;;;;4992999;28;20034;-49
2023/09/17 02:25:47;;;;;;;12.77;7.90;;;19.90;99.90;;;;;;4992713;28;20510;-47
2023/09/17 02:28:13;;;;;;;8.63;7.75;;;19.90;99.90;;;;;;4993455;28;20403;-47
2023/09/17 02:30:39;;;;;;;11.30;8.60;;;19.90;99.90;;;;;;4992927;28;20029;-49
2023/09/17 02:33:05;;;;;;;10.00;8.05;;;19.90;99.90;;;;;;4992892;28;20117;-52
2023/09/17 02:35:30;;;;;;;9.98;8.68;;;19.90;99.90;;;;;;4992829;28;20081;-48
2023/09/17 02:37:56;;;;;;;13.40;8.52;;;20.00;99.90;;;;;;4992922;28;20101;-49
2023/09/17 02:40:23;;;;;;;13.43;9.15;;;20.00;99.90;;;;;;4992657;28;20026;-50
2023/09/17 02:42:48;;;;;;;9.93;7.75;;;20.00;99.90;;;;;;4992789;28;20019;-47
2023/09/17 02:45:14;;;;;;;9.68;8.48;;;19.90;99.90;;;;;;4992409;28;20029;-51
2023/09/17 02:47:42;;;;;;;9.00;8.10;;;19.90;99.90;;;;;;4992726;28;20106;-48
2023/09/17 02:50:09;;;;;;;9.73;7.93;;;19.80;99.90;;;;;;4991993;28;20371;-48
2023/09/17 02:52:35;;;;;;;9.32;7.78;;;19.80;99.90;;;;;;4992621;28;20022;-50
2023/09/17 02:55:02;;;;;;;10.52;8.15;;;19.80;99.90;;;;;;4992261;28;20364;-48
2023/09/17 02:57:28;;;;;;;8.35;7.55;;;19.80;99.90;;;;;;4992514;28;20023;-47
2023/09/17 02:59:54;;;;;;;11.25;8.00;;;19.80;99.90;;;;;;4992361;28;20089;-49
2023/09/17 03:02:19;;;;;;;7.93;7.00;;;19.80;99.90;;;;;;4992441;28;20085;-49
2023/09/17 03:04:45;;;;;;;9.13;8.20;;;19.90;99.90;;;;;;4992091;28;20019;-48
2023/09/17 03:07:11;;;;;;;10.02;7.60;;;19.90;99.90;;;;;;4992393;28;20054;-48
2023/09/17 03:09:38;;;;;;;14.35;8.45;;;19.90;99.90;;;;;;4991003;28;20026;-47
2023/09/17 03:12:04;;;;;;;10.38;7.50;;;19.90;99.90;;;;;;4992363;28;20027;-48
2023/09/17 03:14:29;;;;;;;7.45;6.75;;;19.90;99.90;;;;;;4992301;28;20494;-47
2023/09/17 03:16:55;;;;;;;8.50;7.07;;;19.90;99.90;;;;;;4992221;28;20129;-51
2023/09/17 03:19:20;;;;;;;7.50;6.80;;;19.90;99.90;;;;;;4992004;28;20026;-49
2023/09/17 03:21:46;;;;;;;10.35;8.35;;;19.90;99.90;;;;;;4992387;28;20026;-50
2023/09/17 03:24:14;;;;;;;8.82;8.02;;;19.90;99.90;;;;;;4992121;28;20019;-48
2023/09/17 03:26:41;;;;;;;10.98;8.23;;;19.90;99.90;;;;;;4991845;28;20100;-49
2023/09/17 03:29:07;;;;;;;9.15;8.18;;;19.80;99.90;;;;;;4992156;28;20114;-48
2023/09/17 03:31:48;;;;;;;9.65;8.70;;;19.80;99.90;;;;;;4990938;28;20389;-48
2023/09/17 03:34:14;;;;;;;8.77;7.97;;;19.70;99.90;;;;;;4990725;28;20157;-48
2023/09/17 03:36:39;;;;;;;7.95;7.22;;;19.80;99.90;;;;;;4992037;28;20109;-48
2023/09/17 03:39:08;;;;;;;10.30;7.53;;;19.80;99.90;;;;;;4991130;28;20490;-50
2023/09/17 03:41:34;;;;;;;13.05;7.30;;;19.70;99.90;;;;;;4992019;28;20022;-48
2023/09/17 03:44:00;;;;;;;9.90;7.35;;;19.70;99.90;;;;;;4991941;28;20018;-50
2023/09/17 03:46:25;;;;;;;7.70;7.00;;;19.70;99.90;;;;;;4991818;28;20084;-51
2023/09/17 03:48:51;;;;;;;7.70;7.00;;;19.70;99.90;;;;;;4991799;28;20018;-50
2023/09/17 03:51:16;;;;;;;8.35;7.57;;;19.80;99.90;;;;;;4991952;28;20113;-47
2023/09/17 03:53:43;;;;;;;8.52;7.53;;;19.80;99.90;;;;;;4991809;28;20593;-48
2023/09/17 03:56:09;;;;;;;10.75;7.65;;;19.70;99.90;;;;;;4991761;28;20532;-51
2023/09/17 03:58:34;;;;;;;9.20;8.13;;;19.70;99.90;;;;;;4990543;28;20057;-51
2023/09/17 04:01:00;;;;;;;11.98;8.43;;;19.70;99.90;;;;;;4991835;28;20038;-52
2023/09/17 04:03:26;;;;;;;10.65;8.50;;;19.70;99.90;;;;;;4995572;28;20026;-51
2023/09/17 04:05:52;;;;;;;12.80;11.00;;;19.70;99.90;;;;;;4995449;28;20448;-49
2023/09/17 04:08:17;;;;;;;11.75;10.23;;;19.70;99.90;;;;;;4995687;28;20046;-51
2023/09/17 04:10:43;;;;;;;9.18;8.25;;;19.80;99.90;;;;;;4995537;28;20035;-52
2023/09/17 04:13:09;;;;;;;9.43;8.32;;;19.70;99.90;;;;;;4995513;28;20482;-48
2023/09/17 04:15:36;;;;;;;10.18;7.95;;;19.80;99.90;;;;;;4995251;28;20109;-49
2023/09/17 04:18:04;;;;;;;12.52;8.77;;;19.80;99.90;;;;;;4995331;28;20022;-49
2023/09/17 04:20:29;;;;;;;8.98;7.20;;;19.80;99.90;;;;;;4995281;28;20022;-49
2023/09/17 04:22:55;;;;;;;14.55;11.68;;;19.80;99.90;;;;;;4995391;28;20026;-49
2023/09/17 04:25:21;;;;;;;16.85;14.82;;;19.80;99.90;;;;;;4994694;28;20034;-47
2023/09/17 04:27:47;;;;;;;19.08;14.00;;;19.70;99.90;;;;;;4995656;28;20026;-50
2023/09/17 04:30:14;;;;;;;22.42;14.70;;;19.70;99.90;;;;;;4995175;28;20037;-47
2023/09/17 04:32:41;;;;;;;16.10;14.23;;;19.70;99.90;;;;;;4995168;28;20018;-48
2023/09/17 04:35:09;;;;;;;17.02;14.40;;;19.70;99.90;;;;;;4994934;28;20030;-51
2023/09/17 04:37:35;;;;;;;13.63;11.98;;;19.70;99.90;;;;;;4995095;28;20026;-48
2023/09/17 04:40:02;;;;;;;12.80;11.50;;;19.60;99.90;;;;;;4994996;28;20037;-48
2023/09/17 04:42:28;;;;;;;16.23;12.82;;;19.60;99.90;;;;;;4994909;28;20041;-53
2023/09/17 04:44:54;;;;;;;16.42;14.15;;;19.60;99.90;;;;;;4995015;28;20394;-47
2023/09/17 04:47:19;;;;;;;17.25;15.13;;;19.60;99.90;;;;;;4994890;28;20024;-50
2023/09/17 04:49:45;;;;;;;13.63;12.20;;;19.60;99.90;;;;;;4994835;28;20033;-50
2023/09/17 04:52:10;;;;;;;15.20;13.65;;;19.60;99.90;;;;;;4994787;28;20446;-50
2023/09/17 04:54:38;;;;;;;18.42;14.40;;;19.50;99.90;;;;;;4994633;28;20034;-49
2023/09/17 04:57:04;;;;;;;19.05;14.75;;;19.50;99.90;;;;;;4994267;28;20038;-49
2023/09/17 04:59:30;;;;;;;15.30;13.02;;;19.50;99.90;;;;;;4994251;28;20556;-45
2023/09/17 05:01:55;;;;;;;14.95;10.63;;;19.50;99.90;;;;;;4994368;28;20038;-49
2023/09/17 05:04:24;;;;;;;17.88;10.88;;;19.50;99.90;;;;;;4994556;28;20026;-53
2023/09/17 05:06:49;;;;;;;12.98;10.57;;;19.50;99.90;;;;;;4994433;28;20022;-52
2023/09/17 05:09:15;;;;;;;13.13;11.63;;;19.40;99.90;;;;;;4976959;28;20049;-47
2023/09/17 05:11:40;;;;;;;13.98;12.18;;;19.40;99.90;;;;;;4994342;28;20113;-47
2023/09/17 05:14:06;;;;;;;13.90;10.93;;;19.40;99.90;;;;;;4993993;28;20026;-47
2023/09/17 05:16:31;;;;;;;16.33;13.30;;;19.40;99.90;;;;;;4994658;28;20561;-51
2023/09/17 05:18:57;;;;;;;16.27;14.50;;;19.40;99.90;;;;;;4994222;28;20076;-49
2023/09/17 05:21:22;;;;;;;18.88;14.82;;;19.40;99.90;;;;;;4992834;28;20034;-50
2023/09/17 05:23:48;;;;;;;16.42;14.18;;;19.50;99.90;;;;;;4994181;28;20479;-47
2023/09/17 05:26:13;;;;;;;15.20;13.70;;;19.40;99.90;;;;;;4993860;28;20401;-50
2023/09/17 05:28:39;;;;;;;17.48;15.50;;;19.40;99.90;;;;;;4992901;28;20030;-49
2023/09/17 05:31:04;;;;;;;16.05;14.30;;;19.40;99.90;;;;;;4994043;28;20027;-50
2023/09/17 05:33:30;;;;;;;18.02;14.75;;;19.40;99.90;;;;;;4993971;28;20478;-48
2023/09/17 05:35:56;;;;;;;16.75;13.82;;;19.40;99.90;;;;;;4993610;28;20030;-46
2023/09/17 05:38:23;;;;;;;16.65;13.10;;;19.50;99.90;;;;;;4994003;28;20089;-48
2023/09/17 05:40:49;;;;;;;14.15;9.48;;;19.50;99.90;;;;;;4993942;28;20026;-48
2023/09/17 05:43:15;;;;;;;13.85;11.35;;;19.50;99.90;;;;;;4993989;28;20347;-48
2023/09/17 05:45:40;;;;;;;16.60;13.77;;;19.50;99.90;;;;;;4993632;28;20470;-48
2023/09/17 05:48:06;;;;;;;19.67;14.10;;;19.60;99.90;;;;;;4993733;28;20101;-45
2023/09/17 05:50:32;;;;;;;18.52;15.88;;;19.50;99.90;;;;;;4993631;28;20101;-45
2023/09/17 05:52:57;;;;;;;15.73;14.13;;;19.70;99.90;;;;;;4993752;28;20015;-47
2023/09/17 05:55:23;;;;;;;16.50;13.77;;;19.70;99.90;;;;;;4993395;28;20082;-48
2023/09/17 05:57:48;;;;;;;28.15;14.50;;;19.70;99.90;;;;;;4993660;28;20390;-48
2023/09/17 06:00:14;;;;;;;17.88;15.02;;;19.80;99.90;;;;;;4992126;28;20117;-52
2023/09/17 06:02:39;;;;;;;16.42;14.73;;;19.80;99.90;;;;;;4993439;28;20027;-50
2023/09/17 06:05:05;;;;;;;20.27;15.10;;;19.80;99.90;;;;;;4993440;28;20026;-48
2023/09/17 06:07:31;;;;;;;17.35;14.20;;;19.80;99.90;;;;;;4993436;28;20486;-47
2023/09/17 06:09:56;;;;;;;18.40;15.63;;;19.80;99.90;;;;;;4993485;28;20034;-47
2023/09/17 06:12:22;;;;;;;15.48;13.07;;;19.90;99.90;;;;;;4993416;28;20405;-47
2023/09/17 06:14:48;;;;;;;14.38;12.88;;;19.90;99.90;;;;;;4993145;28;20113;-50
2023/09/17 06:17:13;;;;;;;23.20;13.73;;;20.10;99.90;;;;;;4993246;28;20035;-49
2023/09/17 06:19:39;;;;;;;14.23;12.77;;;20.20;99.90;;;;;;4993234;28;20039;-47
2023/09/17 06:22:04;;;;;;;17.27;13.05;;;20.30;99.90;;;;;;4993223;28;20106;-48
2023/09/17 06:24:30;;;;;;;16.98;13.15;;;20.50;99.90;;;;;;4992227;28;20026;-51
2023/09/17 06:26:55;;;;;;;15.13;12.95;;;20.60;99.90;;;;;;4992785;28;20038;-53
2023/09/17 06:29:21;;;;;;;16.88;10.77;;;20.70;99.90;;;;;;4992974;28;20026;-51
2023/09/17 06:31:47;;;;;;;11.20;9.60;;;20.90;99.90;;;;;;4993155;28;20026;-48
2023/09/17 06:34:13;;;;;;;14.90;12.00;;;21.00;99.90;;;;;;4992949;28;20421;-51
2023/09/17 06:36:39;;;;;;;13.35;11.93;;;21.20;99.90;;;;;;4992745;28;20022;-51
2023/09/17 06:39:06;;;;;;;14.55;12.52;;;21.30;99.90;;;;;;4991596;28;20030;-48
2023/09/17 06:41:32;;;;;;;16.88;12.35;;;21.30;99.90;;;;;;4992709;28;20030;-46
2023/09/17 06:43:58;;;;;;;11.85;10.75;;;21.50;99.90;;;;;;4992358;28;20370;-45
2023/09/17 06:46:24;;;;;;;14.13;10.98;;;21.80;99.90;;;;;;4992789;28;20028;-47
2023/09/17 06:48:52;;;;;;;11.43;9.98;;;22.40;99.90;;;;;;4992843;28;20046;-48
2023/09/17 06:51:19;;;;;;;11.32;10.05;;;22.90;99.90;;;;;;4992639;28;20034;-49
2023/09/17 06:53:45;;;;;;;12.95;10.48;;;23.30;99.90;;;;;;4992558;28;20033;-46
2023/09/17 06:56:13;;;;;;;12.13;9.95;;;23.90;99.90;;;;;;4992358;28;20452;-48
2023/09/17 06:58:38;;;;;;;10.95;9.85;;;24.60;99.90;;;;;;4991526;28;20033;-47
2023/09/17 07:01:05;;;;;;;11.55;10.02;;;25.20;99.90;;;;;;5002788;23;20518;-55
2023/09/17 07:03:31;;;;;;;12.15;8.95;;;25.70;99.90;;;;;;4973390;28;20494;-53
2023/09/17 07:05:56;;;;;;;10.02;8.80;;;26.20;99.90;;;;;;4971811;28;20023;-54
2023/09/17 07:08:22;;;;;;;9.98;8.68;;;26.60;99.90;;;;;;4973149;28;20500;-47
2023/09/17 07:10:47;;;;;;;10.07;9.05;;;26.90;99.90;;;;;;4980254;28;20042;-52
2023/09/17 07:13:13;;;;;;;12.85;8.75;;;27.10;99.90;;;;;;4992652;28;20118;-53
2023/09/17 07:15:39;;;;;;;10.70;7.85;;;27.10;99.90;;;;;;4991065;28;20150;-56
2023/09/17 07:18:07;;;;;;;9.65;7.75;;;27.10;99.90;;;;;;4991428;28;20050;-52
2023/09/17 07:20:32;;;;;;;9.43;8.50;;;27.00;99.90;;;;;;4991104;28;20065;-58
2023/09/17 07:22:58;;;;;;;8.65;7.75;;;26.90;99.90;;;;;;4992842;28;20050;-50
2023/09/17 07:25:23;;;;;;;8.90;7.43;;;27.30;99.90;;;;;;4992114;28;20037;-53
2023/09/17 07:27:49;;;;;;;9.25;7.95;;;27.80;99.90;;;;;;4991144;28;20441;-55
2023/09/17 07:30:15;;;;;;;9.23;8.32;;;27.90;99.90;;;;;;4992298;28;20046;-53
2023/09/17 07:32:40;;;;;;;8.55;7.72;;;28.10;99.90;;;;;;4992195;28;20486;-51
2023/09/17 07:35:08;;;;;;;13.57;8.32;;;28.20;99.90;;;;;;4992374;28;20061;-54
2023/09/17 07:37:33;;;;;;;11.75;8.50;;;28.50;99.90;;;;;;4996284;28;20023;-54
2023/09/17 07:40:01;;;;;;;8.73;7.82;;;28.70;99.90;;;;;;4996114;28;20390;-48
2023/09/17 07:42:27;;;;;;;13.27;8.57;;;28.80;99.90;;;;;;4996147;28;20084;-52
2023/09/17 07:44:52;;;;;;;8.95;7.95;;;28.80;99.90;;;;;;4996169;28;20105;-51
2023/09/17 07:47:18;;;;;;;11.27;8.57;;;28.60;99.90;;;;;;4996225;28;20038;-51
2023/09/17 07:49:44;;;;;;;9.73;8.25;;;28.70;99.90;;;;;;4996509;28;20030;-55
2023/09/17 07:52:09;;;;;;;8.40;7.60;;;28.70;99.90;;;;;;4994765;28;20053;-53
2023/09/17 07:54:39;;;;;;;10.65;7.85;;;28.90;99.90;;;;;;4994559;28;20026;-48
2023/09/17 07:57:05;;;;;;;7.75;7.05;;;28.90;99.90;;;;;;4994461;28;20505;-50
2023/09/17 07:59:31;;;;;;;10.25;7.35;;;28.50;99.90;;;;;;4994310;28;20489;-49
2023/09/17 08:01:58;;;;;;;12.02;8.00;;;27.90;99.90;;;;;;4995461;28;20045;-48
2023/09/17 08:04:23;;;;;;;8.45;7.28;;;27.20;99.90;;;;;;4995646;28;20085;-50
2023/09/17 08:06:49;;;;;;;12.60;9.68;;;26.70;99.90;;;;;;4994281;28;20022;-54
2023/09/17 08:09:16;;;;;;;12.98;7.68;;;26.30;99.90;;;;;;4995753;28;20022;-56
2023/09/17 08:11:42;;;;;;;13.48;7.82;;;25.90;99.90;;;;;;4995757;28;20022;-50
2023/09/17 08:14:08;;;;;;;13.32;8.73;;;25.60;99.90;;;;;;4995611;28;20088;-53
2023/09/17 08:16:35;;;;;;;9.93;7.45;;;25.30;99.90;;;;;;4994234;28;20120;-55
2023/09/17 08:19:00;;;;;;;10.38;7.88;;;25.00;99.90;;;;;;4996198;28;20462;-53
2023/09/17 08:21:27;;;;;;;8.25;7.38;;;24.80;99.90;;;;;;4995502;28;20080;-55
2023/09/17 08:23:53;;;;;;;11.52;8.07;;;24.60;99.90;;;;;;4995648;28;20026;-55
2023/09/17 08:26:19;;;;;;;12.50;8.30;;;24.40;99.90;;;;;;4995451;28;20033;-54
2023/09/17 08:28:46;;;;;;;11.55;7.43;;;24.30;99.90;;;;;;4995507;28;20522;-55
2023/09/17 08:31:11;;;;;;;12.60;8.40;;;24.30;99.90;;;;;;4993990;28;20401;-52
2023/09/17 08:33:37;;;;;;;9.63;8.60;;;24.30;99.90;;;;;;4995116;28;20026;-56
2023/09/17 08:36:02;;;;;;;9.20;7.65;;;24.30;99.90;;;;;;4995099;28;20053;-52
2023/09/17 08:38:29;;;;;;;8.35;7.43;;;24.20;99.90;;;;;;4995320;28;20486;-54
2023/09/17 08:40:57;;;;;;;11.10;7.32;;;24.20;99.90;;;;;;4994839;28;20030;-55
2023/09/17 08:43:24;;;;;;;7.65;6.60;;;24.20;99.90;;;;;;4994992;28;20022;-52
2023/09/17 08:45:50;;;;;;;7.20;6.18;;;24.40;99.90;;;;;;4994561;28;20027;-53
2023/09/17 08:48:17;;;;;;;8.40;5.97;;;25.30;99.90;;;;;;4993972;28;20029;-55
2023/09/17 08:50:45;;;;;;;7.68;6.28;;;26.50;99.90;;;;;;4993721;28;20545;-52
2023/09/17 08:53:14;;;;;;;7.15;5.70;;;27.80;99.90;;;;;;4994948;28;20027;-55
2023/09/17 08:55:40;;;;;;;5.68;5.05;;;28.90;99.90;;;;;;4994607;28;20018;-53
2023/09/17 08:58:21;;;;;;;7.68;5.28;;;29.60;99.90;;;;;;4994854;28;20066;-53
2023/09/17 09:00:50;;;;;;;8.48;5.18;;;30.20;99.90;;;;;;4993608;28;20518;-50
2023/09/17 09:03:17;;;;;;;7.07;5.30;;;30.00;99.90;;;;;;4994844;28;20085;-53
2023/09/17 09:05:46;;;;;;;5.88;5.38;;;30.30;99.90;;;;;;4994837;28;20037;-51
2023/09/17 09:08:13;;;;;;;6.75;5.35;;;30.70;99.70;;;;;;4995237;28;20018;-55
2023/09/17 09:10:38;;;;;;;9.38;6.22;;;30.90;99.30;;;;;;4995192;28;20076;-57
2023/09/17 09:13:04;;;;;;;7.38;5.30;;;31.20;99.10;;;;;;4995103;28;20026;-59
2023/09/17 09:15:30;;;;;;;8.25;5.40;;;31.20;98.70;;;;;;4994246;28;20018;-48
2023/09/17 09:17:56;;;;;;;7.38;5.05;;;31.60;98.40;;;;;;4994775;28;20034;-52
2023/09/17 09:20:22;;;;;;;6.30;4.68;;;31.90;98.00;;;;;;4994409;28;20026;-48
2023/09/17 09:22:48;;;;;;;5.75;4.65;;;32.10;97.60;;;;;;4994524;28;20398;-53
2023/09/17 09:25:14;;;;;;;8.32;4.65;;;32.30;97.40;;;;;;4993459;28;20023;-51
2023/09/17 09:27:40;;;;;;;8.05;4.75;;;32.70;97.00;;;;;;4994225;28;20446;-54
2023/09/17 09:30:11;;;;;;;8.38;4.03;;;32.70;96.70;;;;;;4994390;28;20477;-52
2023/09/17 09:32:37;;;;;;;4.40;4.07;;;32.60;96.50;;;;;;4992974;28;20457;-49
2023/09/17 09:35:04;;;;;;;8.57;4.65;;;32.10;96.60;;;;;;4992795;28;20054;-51
2023/09/17 09:37:31;;;;;;;9.20;4.07;;;32.00;97.30;;;;;;4992756;28;20442;-54
2023/09/17 09:39:58;;;;;;;17.98;4.45;;;31.90;97.10;;;;;;4993913;28;20034;-51
2023/09/17 09:42:23;;;;;;;10.05;4.38;;;31.90;96.50;;;;;;4993965;28;20073;-48
2023/09/17 09:44:50;;;;;;;4.63;4.22;;;31.60;96.60;;;;;;4993625;28;20026;-52
2023/09/17 09:47:16;;;;;;;5.32;4.13;;;31.60;96.70;;;;;;4994046;28;20030;-50
2023/09/17 09:49:45;;;;;;;3.85;3.50;;;31.50;97.10;;;;;;4994048;28;20022;-55
2023/09/17 09:52:12;;;;;;;4.70;4.10;;;31.40;96.60;;;;;;4992491;28;20026;-53
2023/09/17 09:54:43;;;;;;;5.43;4.22;;;31.30;96.90;;;;;;4993969;28;20027;-55
2023/09/17 09:57:12;;;;;;;11.73;3.72;;;31.20;97.00;;;;;;4993857;28;20034;-53
2023/09/17 09:59:38;;;;;;;7.32;3.85;;;30.90;97.10;;;;;;4994070;28;20031;-52
2023/09/17 10:02:04;;;;;;;7.93;5.00;;;30.70;97.10;;;;;;4992354;28;20033;-55
2023/09/17 10:04:30;;;;;;;5.28;4.28;;;30.70;97.90;;;;;;4992252;28;20094;-51
2023/09/17 10:06:56;;;;;;;8.25;3.88;;;30.70;97.20;;;;;;4993321;28;20090;-47
2023/09/17 10:09:25;;;;;;;9.50;4.00;;;30.60;97.30;;;;;;4993425;28;20019;-52
2023/09/17 10:11:53;;;;;;;7.75;3.95;;;30.40;97.40;;;;;;4993162;28;20030;-51
2023/09/17 10:14:21;;;;;;;8.98;3.95;;;30.20;97.20;;;;;;4993100;28;20395;-55
2023/09/17 10:16:49;;;;;;;7.57;4.47;;;30.00;97.80;;;;;;4992991;28;20058;-48
2023/09/17 10:19:19;;;;;;;4.10;3.70;;;29.80;98.10;;;;;;4992906;28;20064;-52
2023/09/17 10:21:45;;;;;;;8.05;4.05;;;29.80;98.30;;;;;;4993134;28;20030;-50
2023/09/17 10:24:13;;;;;;;7.90;3.95;;;29.80;98.50;;;;;;4992963;28;20438;-56
2023/09/17 10:26:42;;;;;;;4.50;4.10;;;30.00;98.70;;;;;;4991398;28;20023;-55
2023/09/17 10:29:10;;;;;;;10.27;3.75;;;30.10;98.90;;;;;;4992957;28;20026;-56
2023/09/17 10:31:37;;;;;;;7.38;4.13;;;29.90;98.30;;;;;;4992931;28;20105;-56
2023/09/17 10:34:04;;;;;;;6.32;3.40;;;29.80;98.70;;;;;;4992865;28;20026;-49
2023/09/17 10:36:32;;;;;;;9.40;3.20;;;29.60;98.40;;;;;;4992768;28;20470;-54
2023/09/17 10:38:59;;;;;;;13.60;4.07;;;29.50;99.10;;;;;;4993203;28;20379;-51
2023/09/17 10:41:28;;;;;;;4.53;3.60;;;29.40;98.50;;;;;;4991582;28;20049;-56
2023/09/17 10:43:55;;;;;;;5.78;3.95;;;29.00;98.60;;;;;;4992792;28;20098;-53
2023/09/17 10:46:22;;;;;;;4.32;3.65;;;28.70;99.30;;;;;;4992679;28;20440;-54
2023/09/17 10:48:50;;;;;;;4.88;3.30;;;28.60;99.40;;;;;;4992646;28;20397;-53
2023/09/17 10:51:17;;;;;;;3.55;3.20;;;28.40;99.60;;;;;;4991163;28;20026;-50
2023/09/17 10:53:43;;;;;;;17.77;13.48;;;28.30;99.90;;;;;;4992402;28;20061;-50
2023/09/17 10:56:10;;;;;;;6.78;4.43;;;28.30;99.90;;;;;;4992442;28;20082;-51
2023/09/17 10:58:42;;;;;;;7.32;4.10;;;28.30;99.90;;;;;;4992420;28;20033;-48
2023/09/17 11:01:11;;;;;;;9.88;3.97;;;28.30;99.90;;;;;;4992252;28;20088;-52
2023/09/17 11:03:40;;;;;;;5.82;3.65;;;28.30;99.90;;;;;;4992266;28;20029;-51
2023/09/17 11:06:14;;;;;;;5.95;4.00;;;28.40;99.90;;;;;;4992335;28;20030;-50
2023/09/17 11:08:46;;;;;;;7.05;3.45;;;28.50;99.90;;;;;;4992261;28;20029;-48
2023/09/17 11:11:14;;;;;;;7.82;4.95;;;28.40;99.80;;;;;;4990549;28;20435;-51
2023/09/17 11:13:42;;;;;;;6.20;3.60;;;28.20;99.90;;;;;;4990879;28;20034;-48
2023/09/17 11:16:08;;;;;;;10.65;3.80;;;28.20;99.90;;;;;;4974073;28;20089;-50
2023/09/17 11:18:34;;;;;;;8.07;3.60;;;28.10;99.90;;;;;;4972736;28;20030;-51
2023/09/17 11:21:10;;;;;;;5.85;3.65;;;28.00;99.90;;;;;;4972851;28;20106;-52
2023/09/17 11:23:36;;;;;;;5.88;3.15;;;27.80;99.90;;;;;;4971460;28;20553;-51
2023/09/17 11:26:02;;;;;;;10.90;4.43;;;27.60;99.90;;;;;;4970458;28;20430;-52
2023/09/17 11:28:39;;;;;;;4.45;3.38;;;27.50;99.90;;;;;;4970758;28;20023;-56
2023/09/17 11:31:09;;;;;;;5.82;3.60;;;27.50;99.90;;;;;;4971569;28;20130;-49
2023/09/17 11:33:39;;;;;;;6.38;3.17;;;27.50;99.90;;;;;;4970789;28;20038;-48
2023/09/17 11:36:06;;;;;;;6.88;3.78;;;27.50;99.90;;;;;;4972441;28;20497;-50
2023/09/17 11:38:31;;;;;;;13.15;3.53;;;27.40;99.90;;;;;;4972772;28;20119;-50
2023/09/17 11:41:04;;;;;;;8.68;3.83;;;27.40;99.90;;;;;;4971650;28;20119;-48
2023/09/17 11:43:31;;;;;;;5.30;3.13;;;27.40;99.90;;;;;;4971489;28;20121;-49
2023/09/17 11:45:58;;;;;;;7.07;3.70;;;27.40;99.90;;;;;;4972646;28;20121;-53
2023/09/17 11:48:24;;;;;;;10.32;4.03;;;27.40;99.90;;;;;;4981989;28;20445;-48
2023/09/17 11:50:50;;;;;;;6.40;3.70;;;27.50;99.90;;;;;;4992350;28;20274;-48
2023/09/17 11:53:16;;;;;;;4.15;3.63;;;27.60;99.90;;;;;;4990652;28;20054;-48
2023/09/17 11:55:42;;;;;;;12.07;3.90;;;27.50;99.90;;;;;;4992165;28;20023;-48
2023/09/17 11:58:20;;;;;;;8.55;3.42;;;27.40;99.90;;;;;;4991185;28;20030;-53
2023/09/17 12:00:46;;;;;;;6.38;3.28;;;27.50;99.90;;;;;;4992228;28;20039;-50
2023/09/17 12:03:13;;;;;;;6.75;3.20;;;27.40;99.90;;;;;;4990901;28;20026;-50
2023/09/17 12:05:39;;;;;;;9.15;3.90;;;27.40;99.90;;;;;;4992183;28;20023;-48
2023/09/17 12:08:06;;;;;;;6.60;3.50;;;27.50;99.90;;;;;;4992212;28;20429;-53
2023/09/17 12:10:37;;;;;;;8.25;3.75;;;27.50;99.90;;;;;;4992195;28;20074;-49
2023/09/17 12:13:04;;;;;;;8.45;3.53;;;27.50;99.90;;;;;;4992257;28;20437;-52
2023/09/17 12:15:31;;;;;;;16.50;9.45;;;27.60;99.90;;;;;;4990570;28;20030;-55
2023/09/17 12:17:57;;;;;;;6.30;3.88;;;27.50;99.90;;;;;;4992271;28;20461;-50
2023/09/17 12:20:43;;;;;;;6.28;3.17;;;27.50;99.90;;;;;;4991097;28;20375;-48
2023/09/17 12:23:15;;;;;;;6.07;3.58;;;27.50;99.90;;;;;;4992899;28;20041;-49
2023/09/17 12:25:44;;;;;;;4.22;3.33;;;27.50;99.90;;;;;;4994200;28;20108;-52
2023/09/17 12:28:10;;;;;;;8.43;3.33;;;27.50;99.90;;;;;;4995787;28;20025;-51
2023/09/17 12:30:36;;;;;;;6.65;3.33;;;27.50;99.90;;;;;;4994651;28;20023;-56
2023/09/17 12:33:02;;;;;;;11.43;3.80;;;27.50;99.90;;;;;;4995816;28;20018;-53
2023/09/17 12:35:27;;;;;;;6.97;3.45;;;27.60;99.90;;;;;;4995438;28;20022;-53
2023/09/17 12:37:54;;;;;;;8.57;3.80;;;27.60;99.90;;;;;;4995600;28;20029;-48